sensor_id;sensor_type;location;lat;lon;timestamp;pressure;altitude;pressure_sealevel;temperature;humidity
36222;BME280;22266;52.340;4.962;2023-08-31T00:01:30;100722.09;;;14.47;75.53
36222;BME280;22266;52.340;4.962;2023-08-31T00:03:57;100725.41;;;14.49;75.90
36222;BME280;22266;52.340;4.962;2023-08-31T00:06:24;100733.91;;;14.53;76.13
36222;BME280;22266;52.340;4.962;2023-08-31T00:08:50;100734.75;;;14.53;76.21
36222;BME280;22266;52.340;4.962;2023-08-31T00:11:16;100736.63;;;14.53;76.50
36222;BME280;22266;52.340;4.962;2023-08-31T00:13:43;100741.38;;;14.57;76.90
36222;BME280;22266;52.340;4.962;2023-08-31T00:16:10;100721.44;;;14.52;76.69
36222;BME280;22266;52.340;4.962;2023-08-31T00:18:38;100719.94;;;14.56;76.93
36222;BME280;22266;52.340;4.962;2023-08-31T00:21:05;100719.13;;;14.55;76.88
36222;BME280;22266;52.340;4.962;2023-08-31T00:23:33;100723.91;;;14.53;77.39
36222;BME280;22266;52.340;4.962;2023-08-31T00:26:00;100719.56;;;14.52;77.25
36222;BME280;22266;52.340;4.962;2023-08-31T00:28:26;100715.19;;;14.51;77.56
36222;BME280;22266;52.340;4.962;2023-08-31T00:30:53;100716.47;;;14.49;78.18
36222;BME280;22266;52.340;4.962;2023-08-31T00:33:20;100714.78;;;14.48;78.40
36222;BME280;22266;52.340;4.962;2023-08-31T00:35:47;100701.25;;;14.48;78.20
36222;BME280;22266;52.340;4.962;2023-08-31T00:38:14;100701.69;;;14.45;78.40
36222;BME280;22266;52.340;4.962;2023-08-31T00:40:42;100726.06;;;14.45;78.70
36222;BME280;22266;52.340;4.962;2023-08-31T00:43:13;100735.72;;;14.34;78.56
36222;BME280;22266;52.340;4.962;2023-08-31T00:45:41;100746.19;;;14.30;79.30
36222;BME280;22266;52.340;4.962;2023-08-31T00:48:08;100750.38;;;14.26;79.25
36222;BME280;22266;52.340;4.962;2023-08-31T00:50:35;100744.78;;;14.21;79.44
36222;BME280;22266;52.340;4.962;2023-08-31T00:53:01;100746.47;;;14.22;79.81
36222;BME280;22266;52.340;4.962;2023-08-31T00:55:31;100718.09;;;14.25;80.34
36222;BME280;22266;52.340;4.962;2023-08-31T00:58:00;100712.75;;;14.18;80.17
36222;BME280;22266;52.340;4.962;2023-08-31T01:00:43;100705.66;;;14.17;80.62
36222;BME280;22266;52.340;4.962;2023-08-31T01:03:23;100716.06;;;14.20;81.18
36222;BME280;22266;52.340;4.962;2023-08-31T01:06:01;100719.38;;;14.22;81.18
36222;BME280;22266;52.340;4.962;2023-08-31T01:08:35;100705.00;;;14.22;80.97
36222;BME280;22266;52.340;4.962;2023-08-31T01:11:30;100701.47;;;14.21;80.89
36222;BME280;22266;52.340;4.962;2023-08-31T01:14:16;100709.38;;;14.23;81.08
36222;BME280;22266;52.340;4.962;2023-08-31T01:16:44;100690.88;;;14.20;81.15
36222;BME280;22266;52.340;4.962;2023-08-31T01:19:42;100691.69;;;14.20;81.29
36222;BME280;22266;52.340;4.962;2023-08-31T01:22:14;100683.19;;;14.17;81.16
36222;BME280;22266;52.340;4.962;2023-08-31T01:24:45;100697.53;;;14.17;81.32
36222;BME280;22266;52.340;4.962;2023-08-31T01:27:12;100691.09;;;14.18;81.37
36222;BME280;22266;52.340;4.962;2023-08-31T01:29:38;100699.81;;;14.20;81.63
36222;BME280;22266;52.340;4.962;2023-08-31T01:32:06;100695.22;;;14.21;81.40
36222;BME280;22266;52.340;4.962;2023-08-31T01:34:34;100696.88;;;14.22;81.21
36222;BME280;22266;52.340;4.962;2023-08-31T01:37:10;100692.31;;;14.22;81.21
36222;BME280;22266;52.340;4.962;2023-08-31T01:40:02;100693.56;;;14.20;81.35
36222;BME280;22266;52.340;4.962;2023-08-31T01:42:32;100691.94;;;14.19;81.36
36222;BME280;22266;52.340;4.962;2023-08-31T01:45:00;100690.25;;;14.18;81.53
36222;BME280;22266;52.340;4.962;2023-08-31T01:47:27;100684.00;;;14.17;81.63
36222;BME280;22266;52.340;4.962;2023-08-31T01:49:54;100687.78;;;14.16;81.97
36222;BME280;22266;52.340;4.962;2023-08-31T01:52:23;100695.66;;;14.18;81.82
36222;BME280;22266;52.340;4.962;2023-08-31T01:54:49;100697.53;;;14.17;81.90
36222;BME280;22266;52.340;4.962;2023-08-31T01:57:16;100704.25;;;14.15;81.77
36222;BME280;22266;52.340;4.962;2023-08-31T01:59:59;100710.94;;;14.12;81.74
36222;BME280;22266;52.340;4.962;2023-08-31T02:02:26;100711.16;;;14.10;81.83
36222;BME280;22266;52.340;4.962;2023-08-31T02:04:52;100712.56;;;14.13;81.98
36222;BME280;22266;52.340;4.962;2023-08-31T02:07:19;100712.81;;;14.12;82.23
36222;BME280;22266;52.340;4.962;2023-08-31T02:09:45;100711.75;;;14.13;82.05
36222;BME280;22266;52.340;4.962;2023-08-31T02:12:12;100718.44;;;14.10;81.97
36222;BME280;22266;52.340;4.962;2023-08-31T02:14:38;100709.72;;;14.08;82.11
36222;BME280;22266;52.340;4.962;2023-08-31T02:17:05;100718.88;;;14.07;81.95
36222;BME280;22266;52.340;4.962;2023-08-31T02:19:31;100713.66;;;14.05;82.36
36222;BME280;22266;52.340;4.962;2023-08-31T02:21:58;100709.13;;;14.06;82.22
36222;BME280;22266;52.340;4.962;2023-08-31T02:24:24;100701.59;;;14.08;82.37
36222;BME280;22266;52.340;4.962;2023-08-31T02:26:51;100706.19;;;14.07;82.10
36222;BME280;22266;52.340;4.962;2023-08-31T02:29:18;100708.66;;;14.09;82.07
36222;BME280;22266;52.340;4.962;2023-08-31T02:31:44;100704.28;;;14.08;82.01
36222;BME280;22266;52.340;4.962;2023-08-31T02:34:11;100703.69;;;14.06;82.28
36222;BME280;22266;52.340;4.962;2023-08-31T02:36:38;100695.59;;;14.06;82.45
36222;BME280;22266;52.340;4.962;2023-08-31T02:39:04;100701.00;;;14.06;82.05
36222;BME280;22266;52.340;4.962;2023-08-31T02:41:31;100704.53;;;14.06;82.37
36222;BME280;22266;52.340;4.962;2023-08-31T02:43:57;100712.66;;;14.06;82.46
36222;BME280;22266;52.340;4.962;2023-08-31T02:46:24;100710.13;;;14.05;82.38
36222;BME280;22266;52.340;4.962;2023-08-31T02:48:51;100725.78;;;14.03;82.31
36222;BME280;22266;52.340;4.962;2023-08-31T02:51:17;100726.22;;;14.00;82.41
36222;BME280;22266;52.340;4.962;2023-08-31T02:53:44;100730.81;;;13.99;82.62
36222;BME280;22266;52.340;4.962;2023-08-31T02:56:10;100725.81;;;13.96;82.44
36222;BME280;22266;52.340;4.962;2023-08-31T02:58:37;100711.91;;;13.93;82.86
36222;BME280;22266;52.340;4.962;2023-08-31T03:01:10;100723.78;;;13.92;82.95
36222;BME280;22266;52.340;4.962;2023-08-31T03:03:41;100711.47;;;13.96;83.08
36222;BME280;22266;52.340;4.962;2023-08-31T03:06:09;100724.56;;;13.99;83.50
36222;BME280;22266;52.340;4.962;2023-08-31T03:08:36;100717.03;;;14.01;83.42
36222;BME280;22266;52.340;4.962;2023-08-31T03:11:04;100715.16;;;14.01;83.38
36222;BME280;22266;52.340;4.962;2023-08-31T03:13:32;100718.72;;;14.02;83.09
36222;BME280;22266;52.340;4.962;2023-08-31T03:15:59;100715.16;;;14.01;82.92
36222;BME280;22266;52.340;4.962;2023-08-31T03:18:26;100713.31;;;14.02;83.12
36222;BME280;22266;52.340;4.962;2023-08-31T03:20:54;100716.22;;;14.00;82.85
36222;BME280;22266;52.340;4.962;2023-08-31T03:23:20;100715.63;;;13.98;82.96
36222;BME280;22266;52.340;4.962;2023-08-31T03:25:47;100712.09;;;13.98;82.75
36222;BME280;22266;52.340;4.962;2023-08-31T03:28:13;100715.00;;;13.96;83.24
36222;BME280;22266;52.340;4.962;2023-08-31T03:30:40;100714.19;;;13.96;83.17
36222;BME280;22266;52.340;4.962;2023-08-31T03:33:07;100719.00;;;13.94;83.02
36222;BME280;22266;52.340;4.962;2023-08-31T03:35:33;100720.47;;;13.90;83.17
36222;BME280;22266;52.340;4.962;2023-08-31T03:38:01;100721.34;;;13.83;83.00
36222;BME280;22266;52.340;4.962;2023-08-31T03:40:28;100718.88;;;13.82;83.33
36222;BME280;22266;52.340;4.962;2023-08-31T03:42:54;100721.16;;;13.78;83.13
36222;BME280;22266;52.340;4.962;2023-08-31T03:45:21;100720.34;;;13.78;83.25
36222;BME280;22266;52.340;4.962;2023-08-31T03:47:47;100713.06;;;13.78;83.77
36222;BME280;22266;52.340;4.962;2023-08-31T03:50:14;100716.34;;;13.80;83.44
36222;BME280;22266;52.340;4.962;2023-08-31T03:52:40;100719.69;;;13.82;83.63
36222;BME280;22266;52.340;4.962;2023-08-31T03:55:08;100717.56;;;13.84;83.47
36222;BME280;22266;52.340;4.962;2023-08-31T03:57:34;100724.66;;;13.85;83.42
36222;BME280;22266;52.340;4.962;2023-08-31T04:00:11;100725.25;;;13.88;83.47
36222;BME280;22266;52.340;4.962;2023-08-31T04:02:42;100737.75;;;13.89;83.61
36222;BME280;22266;52.340;4.962;2023-08-31T04:05:11;100743.97;;;13.89;83.40
36222;BME280;22266;52.340;4.962;2023-08-31T04:07:37;100743.78;;;13.91;83.55
36222;BME280;22266;52.340;4.962;2023-08-31T04:10:04;100751.91;;;13.91;83.29
36222;BME280;22266;52.340;4.962;2023-08-31T04:12:31;100744.59;;;13.91;83.61
36222;BME280;22266;52.340;4.962;2023-08-31T04:14:58;100746.69;;;13.89;83.28
36222;BME280;22266;52.340;4.962;2023-08-31T04:17:24;100743.97;;;13.89;83.56
36222;BME280;22266;52.340;4.962;2023-08-31T04:19:53;100736.91;;;13.88;83.30
36222;BME280;22266;52.340;4.962;2023-08-31T04:22:20;100727.97;;;13.88;83.39
36222;BME280;22266;52.340;4.962;2023-08-31T04:24:46;100727.38;;;13.85;83.27
36222;BME280;22266;52.340;4.962;2023-08-31T04:27:13;100734.63;;;13.85;83.40
36222;BME280;22266;52.340;4.962;2023-08-31T04:29:39;100742.16;;;13.83;83.63
36222;BME280;22266;52.340;4.962;2023-08-31T04:32:06;100742.16;;;13.83;83.66
36222;BME280;22266;52.340;4.962;2023-08-31T04:34:32;100749.22;;;13.84;83.60
36222;BME280;22266;52.340;4.962;2023-08-31T04:36:59;100744.63;;;13.84;83.68
36222;BME280;22266;52.340;4.962;2023-08-31T04:39:25;100756.91;;;13.87;83.66
36222;BME280;22266;52.340;4.962;2023-08-31T04:41:53;100756.91;;;13.87;83.42
36222;BME280;22266;52.340;4.962;2023-08-31T04:44:20;100765.84;;;13.88;83.73
36222;BME280;22266;52.340;4.962;2023-08-31T04:46:46;100769.38;;;13.88;83.48
36222;BME280;22266;52.340;4.962;2023-08-31T04:49:13;100769.81;;;13.85;83.21
36222;BME280;22266;52.340;4.962;2023-08-31T04:51:39;100773.81;;;13.82;83.18
36222;BME280;22266;52.340;4.962;2023-08-31T04:54:08;100781.09;;;13.82;83.77
36222;BME280;22266;52.340;4.962;2023-08-31T04:56:34;100786.28;;;13.83;83.43
36222;BME280;22266;52.340;4.962;2023-08-31T04:59:01;100774.63;;;13.83;83.51
36222;BME280;22266;52.340;4.962;2023-08-31T05:01:29;100782.50;;;13.84;83.64
36222;BME280;22266;52.340;4.962;2023-08-31T05:03:56;100780.44;;;13.87;83.77
36222;BME280;22266;52.340;4.962;2023-08-31T05:06:22;100790.84;;;13.90;83.81
36222;BME280;22266;52.340;4.962;2023-08-31T05:08:49;100799.56;;;13.92;83.68
36222;BME280;22266;52.340;4.962;2023-08-31T05:11:15;100798.94;;;13.90;83.48
36222;BME280;22266;52.340;4.962;2023-08-31T05:13:42;100804.56;;;13.88;83.76
36222;BME280;22266;52.340;4.962;2023-08-31T05:16:09;100796.88;;;13.85;83.76
36222;BME280;22266;52.340;4.962;2023-08-31T05:18:36;100806.28;;;13.82;83.68
36222;BME280;22266;52.340;4.962;2023-08-31T05:21:03;100801.28;;;13.79;83.45
36222;BME280;22266;52.340;4.962;2023-08-31T05:23:30;100818.78;;;13.77;83.50
36222;BME280;22266;52.340;4.962;2023-08-31T05:25:57;100805.88;;;13.72;83.71
36222;BME280;22266;52.340;4.962;2023-08-31T05:28:24;100809.25;;;13.68;83.63
36222;BME280;22266;52.340;4.962;2023-08-31T05:30:52;100812.19;;;13.66;83.64
36222;BME280;22266;52.340;4.962;2023-08-31T05:33:19;100811.53;;;13.64;83.70
36222;BME280;22266;52.340;4.962;2023-08-31T05:35:46;100804.25;;;13.65;83.56
36222;BME280;22266;52.340;4.962;2023-08-31T05:38:12;100811.59;;;13.57;83.55
36222;BME280;22266;52.340;4.962;2023-08-31T05:40:39;100818.84;;;13.57;83.58
36222;BME280;22266;52.340;4.962;2023-08-31T05:43:05;100815.94;;;13.58;83.31
36222;BME280;22266;52.340;4.962;2023-08-31T05:45:33;100818.84;;;13.57;83.20
36222;BME280;22266;52.340;4.962;2023-08-31T05:48:00;100814.91;;;13.59;83.36
36222;BME280;22266;52.340;4.962;2023-08-31T05:50:27;100818.44;;;13.60;83.46
36222;BME280;22266;52.340;4.962;2023-08-31T05:52:54;100817.38;;;13.61;83.14
36222;BME280;22266;52.340;4.962;2023-08-31T05:55:21;100813.44;;;13.64;83.10
36222;BME280;22266;52.340;4.962;2023-08-31T05:57:48;100818.41;;;13.67;83.16
36222;BME280;22266;52.340;4.962;2023-08-31T06:00:15;100816.31;;;13.69;83.48
36222;BME280;22266;52.340;4.962;2023-08-31T06:02:43;100825.66;;;13.73;83.25
36222;BME280;22266;52.340;4.962;2023-08-31T06:05:11;100828.34;;;13.73;83.49
36222;BME280;22266;52.340;4.962;2023-08-31T06:07:43;100831.69;;;13.75;83.56
36222;BME280;22266;52.340;4.962;2023-08-31T06:10:10;100832.09;;;13.78;83.75
36222;BME280;22266;52.340;4.962;2023-08-31T06:12:37;100835.22;;;13.82;83.92
36222;BME280;22266;52.340;4.962;2023-08-31T06:15:04;100833.50;;;13.88;83.79
36222;BME280;22266;52.340;4.962;2023-08-31T06:17:30;100838.06;;;13.94;83.60
36222;BME280;22266;52.340;4.962;2023-08-31T06:19:57;100835.13;;;13.95;84.12
36222;BME280;22266;52.340;4.962;2023-08-31T06:22:24;100838.84;;;14.01;84.11
36222;BME280;22266;52.340;4.962;2023-08-31T06:24:50;100843.81;;;14.04;84.03
36222;BME280;22266;52.340;4.962;2023-08-31T06:27:18;100847.34;;;14.04;83.77
36222;BME280;22266;52.340;4.962;2023-08-31T06:29:44;100844.44;;;14.06;83.91
36222;BME280;22266;52.340;4.962;2023-08-31T06:32:11;100842.34;;;14.08;84.18
36222;BME280;22266;52.340;4.962;2023-08-31T06:34:37;100842.97;;;14.10;84.20
36222;BME280;22266;52.340;4.962;2023-08-31T06:37:04;100844.19;;;14.14;83.95
36222;BME280;22266;52.340;4.962;2023-08-31T06:39:31;100853.13;;;14.15;83.90
36222;BME280;22266;52.340;4.962;2023-08-31T06:41:59;100847.72;;;14.15;84.04
36222;BME280;22266;52.340;4.962;2023-08-31T06:44:30;100859.16;;;14.17;84.26
36222;BME280;22266;52.340;4.962;2023-08-31T06:46:57;100859.16;;;14.17;84.19
36222;BME280;22266;52.340;4.962;2023-08-31T06:49:24;100863.50;;;14.18;83.94
36222;BME280;22266;52.340;4.962;2023-08-31T06:51:50;100860.19;;;14.16;84.02
36222;BME280;22266;52.340;4.962;2023-08-31T06:54:17;100866.44;;;14.16;84.20
36222;BME280;22266;52.340;4.962;2023-08-31T06:56:43;100865.63;;;14.16;84.13
36222;BME280;22266;52.340;4.962;2023-08-31T06:59:10;100869.78;;;14.18;84.31
36222;BME280;22266;52.340;4.962;2023-08-31T07:01:36;100873.91;;;14.21;84.33
36222;BME280;22266;52.340;4.962;2023-08-31T07:04:03;100874.94;;;14.26;84.62
36222;BME280;22266;52.340;4.962;2023-08-31T07:06:33;100871.38;;;14.26;84.41
36222;BME280;22266;52.340;4.962;2023-08-31T07:08:59;100879.69;;;14.31;84.63
36222;BME280;22266;52.340;4.962;2023-08-31T07:11:26;100874.69;;;14.34;84.69
36222;BME280;22266;52.340;4.962;2023-08-31T07:13:53;100878.38;;;14.40;84.57
36222;BME280;22266;52.340;4.962;2023-08-31T07:16:20;100883.56;;;14.42;84.46
36222;BME280;22266;52.340;4.962;2023-08-31T07:18:47;100875.84;;;14.45;84.57
36222;BME280;22266;52.340;4.962;2023-08-31T07:21:14;100889.38;;;14.52;84.61
36222;BME280;22266;52.340;4.962;2023-08-31T07:23:40;100899.78;;;14.55;84.67
36222;BME280;22266;52.340;4.962;2023-08-31T07:26:07;100902.50;;;14.55;84.59
36222;BME280;22266;52.340;4.962;2023-08-31T07:28:34;100898.31;;;14.52;84.92
36222;BME280;22266;52.340;4.962;2023-08-31T07:31:02;100900.44;;;14.50;85.40
36222;BME280;22266;52.340;4.962;2023-08-31T07:33:34;100896.25;;;14.48;85.44
36222;BME280;22266;52.340;4.962;2023-08-31T07:36:04;100889.38;;;14.45;85.75
36222;BME280;22266;52.340;4.962;2023-08-31T07:38:32;100896.06;;;14.49;85.81
36222;BME280;22266;52.340;4.962;2023-08-31T07:40:59;100897.50;;;14.45;85.50
36222;BME280;22266;52.340;4.962;2023-08-31T07:43:26;100907.09;;;14.48;85.84
36222;BME280;22266;52.340;4.962;2023-08-31T07:45:53;100904.38;;;14.54;85.71
36222;BME280;22266;52.340;4.962;2023-08-31T07:48:20;100903.47;;;14.61;85.85
36222;BME280;22266;52.340;4.962;2023-08-31T07:50:46;100906.59;;;14.64;85.61
36222;BME280;22266;52.340;4.962;2023-08-31T07:53:13;100910.75;;;14.67;85.76
36222;BME280;22266;52.340;4.962;2023-08-31T07:55:40;100915.69;;;14.70;85.56
36222;BME280;22266;52.340;4.962;2023-08-31T07:58:06;100903.19;;;14.75;85.40
36222;BME280;22266;52.340;4.962;2023-08-31T08:00:33;100907.94;;;14.80;85.38
36222;BME280;22266;52.340;4.962;2023-08-31T08:03:00;100907.84;;;14.87;85.36
36222;BME280;22266;52.340;4.962;2023-08-31T08:05:27;100913.00;;;14.95;85.27
36222;BME280;22266;52.340;4.962;2023-08-31T08:07:53;100917.56;;;15.01;85.61
36222;BME280;22266;52.340;4.962;2023-08-31T08:10:20;100917.28;;;15.09;84.96
36222;BME280;22266;52.340;4.962;2023-08-31T08:12:46;100919.94;;;15.16;85.09
36222;BME280;22266;52.340;4.962;2023-08-31T08:15:13;100925.13;;;15.17;85.22
36222;BME280;22266;52.340;4.962;2023-08-31T08:17:40;100924.69;;;15.20;84.83
36222;BME280;22266;52.340;4.962;2023-08-31T08:20:07;100920.69;;;15.23;84.70
36222;BME280;22266;52.340;4.962;2023-08-31T08:22:34;100925.00;;;15.30;84.70
36222;BME280;22266;52.340;4.962;2023-08-31T08:25:02;100926.00;;;15.36;84.32
36222;BME280;22266;52.340;4.962;2023-08-31T08:27:29;100929.69;;;15.42;84.59
36222;BME280;22266;52.340;4.962;2023-08-31T08:29:56;100923.88;;;15.38;84.01
36222;BME280;22266;52.340;4.962;2023-08-31T08:32:22;100926.81;;;15.37;83.55
36222;BME280;22266;52.340;4.962;2023-08-31T08:34:50;100930.59;;;15.36;84.00
36222;BME280;22266;52.340;4.962;2023-08-31T08:37:17;100936.47;;;15.32;83.96
36222;BME280;22266;52.340;4.962;2023-08-31T08:39:43;100942.56;;;15.28;84.16
36222;BME280;22266;52.340;4.962;2023-08-31T08:42:10;100942.72;;;15.33;84.47
36222;BME280;22266;52.340;4.962;2023-08-31T08:44:38;100942.72;;;15.33;83.66
36222;BME280;22266;52.340;4.962;2023-08-31T08:47:06;100946.69;;;15.30;83.57
36222;BME280;22266;52.340;4.962;2023-08-31T08:49:33;100946.53;;;15.25;83.58
36222;BME280;22266;52.340;4.962;2023-08-31T08:52:03;100950.34;;;15.18;82.95
36222;BME280;22266;52.340;4.962;2023-08-31T08:54:29;100952.69;;;15.14;82.85
36222;BME280;22266;52.340;4.962;2023-08-31T08:56:56;100955.84;;;15.11;83.11
36222;BME280;22266;52.340;4.962;2023-08-31T08:59:24;100949.38;;;15.12;83.17
36222;BME280;22266;52.340;4.962;2023-08-31T09:01:50;100946.00;;;15.17;82.75
36222;BME280;22266;52.340;4.962;2023-08-31T09:04:17;100949.25;;;15.25;82.58
36222;BME280;22266;52.340;4.962;2023-08-31T09:06:45;100953.84;;;15.25;82.31
36222;BME280;22266;52.340;4.962;2023-08-31T09:09:11;100953.78;;;15.31;81.38
36222;BME280;22266;52.340;4.962;2023-08-31T09:11:38;100953.03;;;15.43;80.70
36222;BME280;22266;52.340;4.962;2023-08-31T09:14:18;100963.84;;;15.49;79.99
36222;BME280;22266;52.340;4.962;2023-08-31T09:16:46;100962.34;;;15.53;79.56
36222;BME280;22266;52.340;4.962;2023-08-31T09:19:32;100965.81;;;15.61;79.03
36222;BME280;22266;52.340;4.962;2023-08-31T09:21:58;100959.09;;;15.63;78.98
36222;BME280;22266;52.340;4.962;2023-08-31T09:24:25;100964.72;;;15.68;78.70
36222;BME280;22266;52.340;4.962;2023-08-31T09:26:54;100965.25;;;15.77;78.65
36222;BME280;22266;52.340;4.962;2023-08-31T09:29:21;100967.28;;;15.81;78.44
36222;BME280;22266;52.340;4.962;2023-08-31T09:31:48;100971.47;;;15.84;78.51
36222;BME280;22266;52.340;4.962;2023-08-31T09:34:16;100980.63;;;15.83;77.91
36222;BME280;22266;52.340;4.962;2023-08-31T09:36:43;100981.09;;;15.80;77.75
36222;BME280;22266;52.340;4.962;2023-08-31T09:39:10;100980.72;;;15.76;78.00
36222;BME280;22266;52.340;4.962;2023-08-31T09:41:54;100978.41;;;15.80;78.20
36222;BME280;22266;52.340;4.962;2023-08-31T09:44:21;100981.47;;;15.83;78.60
36222;BME280;22266;52.340;4.962;2023-08-31T09:46:47;100977.41;;;15.93;78.10
36222;BME280;22266;52.340;4.962;2023-08-31T09:49:16;100971.19;;;16.04;77.43
36222;BME280;22266;52.340;4.962;2023-08-31T09:51:47;100979.78;;;16.19;77.02
36222;BME280;22266;52.340;4.962;2023-08-31T09:54:16;100979.34;;;16.22;76.38
36222;BME280;22266;52.340;4.962;2023-08-31T09:56:44;100973.47;;;16.25;76.01
36222;BME280;22266;52.340;4.962;2023-08-31T09:59:14;100979.41;;;16.34;75.38
36222;BME280;22266;52.340;4.962;2023-08-31T10:01:42;100985.09;;;16.44;74.94
36222;BME280;22266;52.340;4.962;2023-08-31T10:04:09;100987.38;;;16.47;73.78
36222;BME280;22266;52.340;4.962;2023-08-31T10:06:35;100991.16;;;16.46;73.06
36222;BME280;22266;52.340;4.962;2023-08-31T10:09:03;100985.97;;;16.45;72.57
36222;BME280;22266;52.340;4.962;2023-08-31T10:11:31;100986.63;;;16.40;72.87
36222;BME280;22266;52.340;4.962;2023-08-31T10:13:58;100983.59;;;16.48;72.66
36222;BME280;22266;52.340;4.962;2023-08-31T10:16:25;101004.81;;;16.58;72.69
36222;BME280;22266;52.340;4.962;2023-08-31T10:18:56;100998.75;;;16.56;72.58
36222;BME280;22266;52.340;4.962;2023-08-31T10:21:23;100997.78;;;16.50;72.45
36222;BME280;22266;52.340;4.962;2023-08-31T10:23:50;100997.03;;;16.43;72.90
36222;BME280;22266;52.340;4.962;2023-08-31T10:26:28;100996.66;;;16.40;72.93
36222;BME280;22266;52.340;4.962;2023-08-31T10:28:56;101002.59;;;16.37;72.97
36222;BME280;22266;52.340;4.962;2023-08-31T10:31:33;101002.72;;;16.42;73.08
36222;BME280;22266;52.340;4.962;2023-08-31T10:34:04;101002.84;;;16.47;72.94
36222;BME280;22266;52.340;4.962;2023-08-31T10:37:00;100999.00;;;16.54;72.74
36222;BME280;22266;52.340;4.962;2023-08-31T10:39:39;101001.47;;;16.56;71.84
36222;BME280;22266;52.340;4.962;2023-08-31T10:42:06;101004.34;;;16.61;71.29
36222;BME280;22266;52.340;4.962;2023-08-31T10:44:34;101006.00;;;16.62;71.01
36222;BME280;22266;52.340;4.962;2023-08-31T10:47:03;101014.53;;;16.66;71.34
36222;BME280;22266;52.340;4.962;2023-08-31T10:49:30;101022.31;;;16.62;71.55
36222;BME280;22266;52.340;4.962;2023-08-31T10:52:15;101019.97;;;16.66;71.14
36222;BME280;22266;52.340;4.962;2023-08-31T10:54:57;101017.38;;;16.71;71.42
36222;BME280;22266;52.340;4.962;2023-08-31T10:57:29;101031.50;;;16.79;71.66
36222;BME280;22266;52.340;4.962;2023-08-31T10:59:57;101031.13;;;16.76;71.79
36222;BME280;22266;52.340;4.962;2023-08-31T11:02:41;101025.94;;;16.74;71.05
36222;BME280;22266;52.340;4.962;2023-08-31T11:05:26;101031.25;;;16.81;71.24
36222;BME280;22266;52.340;4.962;2023-08-31T11:07:53;101026.88;;;16.80;70.55
36222;BME280;22266;52.340;4.962;2023-08-31T11:10:22;101029.53;;;16.87;69.70
36222;BME280;22266;52.340;4.962;2023-08-31T11:12:56;101027.66;;;16.99;68.96
36222;BME280;22266;52.340;4.962;2023-08-31T11:15:26;101025.53;;;17.01;69.41
36222;BME280;22266;52.340;4.962;2023-08-31T11:17:54;101017.03;;;17.09;69.58
36222;BME280;22266;52.340;4.962;2023-08-31T11:20:22;101021.06;;;17.07;69.47
36222;BME280;22266;52.340;4.962;2023-08-31T11:22:50;101022.34;;;17.04;68.84
36222;BME280;22266;52.340;4.962;2023-08-31T11:25:19;101011.59;;;17.09;68.88
36222;BME280;22266;52.340;4.962;2023-08-31T11:27:55;101011.25;;;17.17;69.08
36222;BME280;22266;52.340;4.962;2023-08-31T11:30:22;101009.50;;;17.23;68.16
36222;BME280;22266;52.340;4.962;2023-08-31T11:32:51;101007.97;;;17.27;67.88
36222;BME280;22266;52.340;4.962;2023-08-31T11:35:20;101011.53;;;17.27;66.88
36222;BME280;22266;52.340;4.962;2023-08-31T11:37:50;101011.25;;;17.17;64.54
36222;BME280;22266;52.340;4.962;2023-08-31T11:40:17;101009.63;;;17.28;63.93
36222;BME280;22266;52.340;4.962;2023-08-31T11:42:44;101016.75;;;17.41;64.25
36222;BME280;22266;52.340;4.962;2023-08-31T11:45:12;101005.75;;;17.59;63.97
36222;BME280;22266;52.340;4.962;2023-08-31T11:47:40;101012.25;;;17.70;62.75
36222;BME280;22266;52.340;4.962;2023-08-31T11:50:08;101011.41;;;17.69;61.75
36222;BME280;22266;52.340;4.962;2023-08-31T11:52:34;101017.88;;;17.75;61.63
36222;BME280;22266;52.340;4.962;2023-08-31T11:55:02;101024.72;;;17.77;60.37
36222;BME280;22266;52.340;4.962;2023-08-31T11:57:29;101020.69;;;17.80;60.40
36222;BME280;22266;52.340;4.962;2023-08-31T11:59:55;101028.88;;;17.80;60.59
36222;BME280;22266;52.340;4.962;2023-08-31T12:02:22;101019.59;;;17.69;58.44
36222;BME280;22266;52.340;4.962;2023-08-31T12:04:49;101026.47;;;17.72;58.10
36222;BME280;22266;52.340;4.962;2023-08-31T12:07:17;101029.69;;;17.81;58.45
36222;BME280;22266;52.340;4.962;2023-08-31T12:09:45;101025.31;;;17.79;57.93
36222;BME280;22266;52.340;4.962;2023-08-31T12:12:14;101031.34;;;17.82;56.46
36222;BME280;22266;52.340;4.962;2023-08-31T12:14:43;101018.69;;;17.75;56.83
36222;BME280;22266;52.340;4.962;2023-08-31T12:17:10;101019.84;;;17.68;55.88
36222;BME280;22266;52.340;4.962;2023-08-31T12:19:40;101029.13;;;17.78;55.94
36222;BME280;22266;52.340;4.962;2023-08-31T12:22:06;101024.94;;;17.88;56.60
36222;BME280;22266;52.340;4.962;2023-08-31T12:24:40;101024.59;;;17.96;56.56
36222;BME280;22266;52.340;4.962;2023-08-31T12:27:08;101026.50;;;17.95;56.29
36222;BME280;22266;52.340;4.962;2023-08-31T12:29:35;101030.13;;;18.01;57.02
36222;BME280;22266;52.340;4.962;2023-08-31T12:32:02;101030.03;;;18.08;57.00
36222;BME280;22266;52.340;4.962;2023-08-31T12:34:29;101037.94;;;18.09;56.51
36222;BME280;22266;52.340;4.962;2023-08-31T12:36:57;101037.13;;;18.09;56.92
36222;BME280;22266;52.340;4.962;2023-08-31T12:39:27;101036.53;;;18.07;55.80
36222;BME280;22266;52.340;4.962;2023-08-31T12:41:54;101043.50;;;18.14;55.99
36222;BME280;22266;52.340;4.962;2023-08-31T12:44:31;101036.88;;;18.10;55.27
36222;BME280;22266;52.340;4.962;2023-08-31T12:46:57;101046.00;;;18.16;54.96
36222;BME280;22266;52.340;4.962;2023-08-31T12:49:24;101037.94;;;18.21;55.12
36222;BME280;22266;52.340;4.962;2023-08-31T12:51:50;101044.81;;;18.23;55.54
36222;BME280;22266;52.340;4.962;2023-08-31T12:54:17;101036.94;;;18.27;55.15
36222;BME280;22266;52.340;4.962;2023-08-31T12:56:44;101049.19;;;18.24;54.22